Time;durP1;ratioP1;P1;durP2;ratioP2;P2;SDS_P1;SDS_P2;PMS_P1;PMS_P2;Temp;Humidity;BMP_temperature;BMP_pressure;BME280_temperature;BME280_humidity;BME280_pressure;Samples;Min_cycle;Max_cycle;Signal;HPM_P1;HPM_P2
2023/12/11 00:00:12;;;;;;;9.98;2.03;;;;;;;8.69;100.00;98700.16;5180788;28;20029;-78
2023/12/11 00:02:42;;;;;;;5.43;1.75;;;;;;;8.71;100.00;98702.69;5176211;28;20026;-78
2023/12/11 00:05:12;;;;;;;10.43;2.15;;;;;;;8.78;100.00;98697.03;5177625;28;20041;-79
2023/12/11 00:07:43;;;;;;;11.85;1.90;;;;;;;8.87;100.00;98706.91;5179367;28;20121;-78
2023/12/11 00:10:14;;;;;;;10.95;2.13;;;;;;;8.90;100.00;98700.69;5175463;28;20022;-78
2023/12/11 00:12:44;;;;;;;11.75;2.10;;;;;;;8.91;100.00;98703.19;5178797;28;20129;-76
2023/12/11 00:15:14;;;;;;;6.85;1.40;;;;;;;8.99;100.00;98698.38;5176954;28;20438;-76
2023/12/11 00:17:45;;;;;;;5.25;1.60;;;;;;;9.05;100.00;98705.00;5169449;28;20557;-78
2023/12/11 00:20:15;;;;;;;8.20;1.40;;;;;;;9.04;100.00;98711.97;5179154;28;20053;-77
2023/12/11 00:22:45;;;;;;;5.93;1.30;;;;;;;9.04;100.00;98705.94;5168622;28;20033;-78
2023/12/11 00:25:16;;;;;;;6.45;1.17;;;;;;;9.07;100.00;98727.41;5178507;28;20021;-78
2023/12/11 00:27:46;;;;;;;7.65;1.20;;;;;;;9.17;100.00;98723.34;5177087;28;20022;-79
2023/12/11 00:30:16;;;;;;;4.50;1.20;;;;;;;9.19;100.00;98724.94;5176029;28;20022;-77
2023/12/11 00:32:47;;;;;;;9.23;1.38;;;;;;;9.21;100.00;98740.47;5177279;28;20273;-78
2023/12/11 00:35:17;;;;;;;9.30;1.60;;;;;;;9.29;100.00;98725.22;5177403;28;20022;-78
2023/12/11 00:37:47;;;;;;;6.63;1.20;;;;;;;9.37;100.00;98733.41;5162957;28;20373;-78
2023/12/11 00:40:18;;;;;;;7.53;1.63;;;;;;;9.44;100.00;98735.56;5179554;28;20502;-79
2023/12/11 00:42:48;;;;;;;5.45;1.30;;;;;;;9.54;100.00;98735.84;5177652;28;20534;-78
2023/12/11 00:45:18;;;;;;;7.43;1.27;;;;;;;9.52;100.00;98746.34;5162124;28;20018;-78
2023/12/11 00:47:49;;;;;;;8.02;1.50;;;;;;;9.45;100.00;98731.19;5178334;28;20034;-76
2023/12/11 00:50:19;;;;;;;9.73;1.55;;;;;;;9.55;100.00;98748.81;5178287;28;20024;-77
2023/12/11 00:52:50;;;;;;;8.57;1.13;;;;;;;9.53;100.00;98747.22;5177598;28;20040;-78
2023/12/11 00:55:20;;;;;;;9.80;1.23;;;;;;;9.62;100.00;98742.28;5178977;28;20518;-78
2023/12/11 00:57:50;;;;;;;10.90;1.52;;;;;;;9.64;100.00;98744.81;5177793;28;20038;-77
2023/12/11 01:00:20;;;;;;;8.98;1.92;;;;;;;9.68;100.00;98752.31;5165443;28;20208;-77
2023/12/11 01:02:51;;;;;;;6.10;1.33;;;;;;;9.59;100.00;98747.69;5178883;28;20056;-78
2023/12/11 01:05:21;;;;;;;13.55;1.67;;;;;;;9.52;100.00;98750.75;5178692;28;20424;-75
2023/12/11 01:07:52;;;;;;;11.70;2.35;;;;;;;9.53;100.00;98753.28;5163303;28;20484;-75
2023/12/11 01:10:22;;;;;;;11.85;1.48;;;;;;;9.65;100.00;98752.50;5176859;28;20508;-77
2023/12/11 01:12:54;;;;;;;10.38;1.83;;;;;;;9.67;100.00;98749.81;5166289;28;20029;-78
2023/12/11 01:15:24;;;;;;;12.30;1.60;;;;;;;9.67;100.00;98758.47;5174841;28;20451;-74
2023/12/11 01:17:54;;;;;;;9.07;1.30;;;;;;;9.76;100.00;98763.13;5180730;28;20033;-78
2023/12/11 01:20:25;;;;;;;14.77;1.63;;;;;;;9.78;100.00;98760.41;5178355;28;20179;-76
2023/12/11 01:22:55;;;;;;;6.60;1.77;;;;;;;9.85;100.00;98766.94;5166325;28;20448;-79
2023/12/11 01:25:25;;;;;;;10.57;2.38;;;;;;;9.83;100.00;98768.81;5176532;28;20164;-78
2023/12/11 01:27:56;;;;;;;11.93;1.75;;;;;;;10.04;100.00;98767.53;5161478;28;20029;-78
2023/12/11 01:30:26;;;;;;;11.75;2.00;;;;;;;10.02;100.00;98785.06;5178039;28;20495;-78
2023/12/11 01:32:56;;;;;;;10.75;1.67;;;;;;;9.96;100.00;98772.34;5177529;28;20483;-78
2023/12/11 01:35:27;;;;;;;8.43;1.70;;;;;;;9.94;100.00;98774.19;5173810;28;20427;-78
2023/12/11 01:37:57;;;;;;;12.10;1.70;;;;;;;10.02;100.00;98780.66;5177290;28;20029;-79
2023/12/11 01:40:27;;;;;;;8.13;2.13;;;;;;;9.91;100.00;98785.69;5173766;28;20065;-78
2023/12/11 01:43:33;;;;;;;12.98;1.70;;;;;;;9.88;100.00;98787.63;5175066;28;20396;-77
2023/12/11 01:46:12;;;;;;;13.53;1.97;;;;;;;9.92;100.00;98796.94;5104594;29;20059;-77
2023/12/11 01:48:42;;;;;;;11.80;1.40;;;;;;;9.92;100.00;98795.19;5167333;28;20487;-77
2023/12/11 01:51:17;;;;;;;9.02;1.90;;;;;;;9.94;100.00;98806.38;5174087;28;20026;-74
2023/12/11 01:53:50;;;;;;;10.95;1.60;;;;;;;9.92;100.00;98807.38;5154778;28;20030;-78
2023/12/11 01:56:21;;;;;;;12.73;1.90;;;;;;;10.00;100.00;98807.75;5166540;28;20026;-78
2023/12/11 01:58:52;;;;;;;9.25;2.03;;;;;;;9.98;100.00;98820.06;5164269;28;20049;-77
2023/12/11 02:01:25;;;;;;;11.90;1.85;;;;;;;10.00;100.00;98810.38;5174721;28;20152;-76
2023/12/11 02:03:55;;;;;;;10.90;1.65;;;;;;;9.97;100.00;98826.22;5177698;28;20087;-78
2023/12/11 02:06:26;;;;;;;9.02;1.70;;;;;;;10.00;100.00;98826.84;5174817;28;20045;-77
2023/12/11 02:08:56;;;;;;;13.98;2.15;;;;;;;10.04;100.00;98831.00;5178569;28;20030;-77
2023/12/11 02:11:26;;;;;;;13.98;1.73;;;;;;;9.98;100.00;98831.31;5161641;28;20471;-79
2023/12/11 02:13:57;;;;;;;13.23;1.95;;;;;;;9.97;100.00;98819.22;5175096;28;20030;-77
2023/12/11 02:16:27;;;;;;;13.77;1.58;;;;;;;9.91;100.00;98823.97;5175424;28;20033;-77
2023/12/11 02:18:58;;;;;;;11.55;1.70;;;;;;;9.90;100.00;98822.28;5169702;28;20026;-77
2023/12/11 02:21:28;;;;;;;17.10;2.42;;;;;;;9.88;100.00;98829.38;5161049;28;20068;-78
2023/12/11 02:24:26;;;;;;;19.02;2.25;;;;;;;9.83;100.00;98831.44;5176613;28;20030;-76
2023/12/11 02:26:57;;;;;;;15.52;1.95;;;;;;;9.86;100.00;98819.03;5175778;28;20030;-78
2023/12/11 02:29:27;;;;;;;12.95;2.03;;;;;;;9.95;100.00;98815.00;5174765;28;20498;-79
2023/12/11 02:31:57;;;;;;;9.43;1.58;;;;;;;9.93;100.00;98822.09;5176986;28;20029;-78
2023/12/11 02:34:28;;;;;;;13.18;1.92;;;;;;;9.91;100.00;98821.34;5173131;28;20022;-78
2023/12/11 02:36:58;;;;;;;16.30;2.10;;;;;;;9.96;100.00;98822.75;5176210;28;20029;-77
2023/12/11 02:39:28;;;;;;;13.30;1.80;;;;;;;10.03;100.00;98818.03;5174266;28;20046;-78
2023/12/11 02:41:59;;;;;;;12.13;1.50;;;;;;;9.96;100.00;98821.94;5174595;28;20018;-78
2023/12/11 02:44:29;;;;;;;13.88;2.08;;;;;;;9.95;100.00;98815.00;5173116;28;20021;-78
2023/12/11 02:46:59;;;;;;;16.58;1.83;;;;;;;9.94;100.00;98821.16;5175452;28;20029;-78
2023/12/11 02:49:30;;;;;;;11.27;1.77;;;;;;;9.97;100.00;98823.63;5175495;28;20056;-78
2023/12/11 02:52:00;;;;;;;14.40;2.00;;;;;;;9.94;100.00;98826.38;5175814;28;20030;-78
2023/12/11 02:54:31;;;;;;;11.65;1.60;;;;;;;9.86;100.00;98836.47;5173740;28;20057;-78
2023/12/11 02:57:01;;;;;;;16.15;2.10;;;;;;;9.95;100.00;98835.88;5178110;28;20284;-78
2023/12/11 02:59:31;;;;;;;15.88;2.78;;;;;;;9.94;100.00;98834.22;5174124;28;20053;-79
2023/12/11 03:02:03;;;;;;;16.98;1.70;;;;;;;9.98;100.00;98830.50;5176486;28;20030;-79
2023/12/11 03:04:33;;;;;;;14.10;1.98;;;;;;;10.08;100.00;98827.28;5174625;28;20052;-79
2023/12/11 03:07:04;;;;;;;19.65;2.40;;;;;;;10.08;100.00;98839.47;5163348;28;20419;-78
2023/12/11 03:09:34;;;;;;;18.33;2.35;;;;;;;10.05;100.00;98832.69;5176081;28;20084;-78
2023/12/11 03:12:04;;;;;;;16.23;2.33;;;;;;;9.97;100.00;98828.84;5175921;28;20029;-78
2023/12/11 03:14:35;;;;;;;13.73;2.03;;;;;;;9.94;100.00;98829.00;5174830;28;20026;-78
2023/12/11 03:17:05;;;;;;;17.85;2.47;;;;;;;9.98;100.00;98825.28;5175741;28;20029;-78
2023/12/11 03:19:35;;;;;;;17.75;2.20;;;;;;;9.93;100.00;98832.53;5173571;28;20120;-76
2023/12/11 03:22:06;;;;;;;12.45;2.25;;;;;;;9.94;100.00;98829.00;5176882;28;20108;-78
2023/12/11 03:24:36;;;;;;;17.38;2.70;;;;;;;9.80;100.00;98839.44;5174215;28;20045;-78
2023/12/11 03:27:06;;;;;;;17.77;2.10;;;;;;;9.74;100.00;98837.19;5176901;28;20040;-78
2023/12/11 03:29:37;;;;;;;15.23;2.30;;;;;;;9.74;100.00;98834.56;5176693;28;20315;-78
2023/12/11 03:32:08;;;;;;;12.52;2.30;;;;;;;9.66;100.00;98840.25;5180565;28;20029;-79
2023/12/11 03:34:38;;;;;;;20.02;2.50;;;;;;;9.61;100.00;98836.22;5177851;28;20037;-76
2023/12/11 03:37:09;;;;;;;12.68;2.08;;;;;;;9.60;100.00;98840.63;5181076;28;20030;-78
2023/12/11 03:39:41;;;;;;;12.85;2.38;;;;;;;9.59;100.00;98845.91;5170100;28;20036;-79
2023/12/11 03:42:11;;;;;;;16.40;1.85;;;;;;;9.65;100.00;98841.19;5168875;28;20026;-78
2023/12/11 03:44:41;;;;;;;17.48;2.88;;;;;;;9.57;100.00;98837.34;5179034;28;20029;-77
2023/12/11 03:47:12;;;;;;;16.80;2.88;;;;;;;9.66;100.00;98847.25;5180443;28;20033;-78
2023/12/11 03:49:42;;;;;;;13.30;2.63;;;;;;;9.68;100.00;98837.56;5178752;28;20032;-78
2023/12/11 03:52:12;;;;;;;20.60;2.40;;;;;;;9.59;100.00;98843.31;5181034;28;20502;-78
2023/12/11 03:54:43;;;;;;;22.65;2.67;;;;;;;9.60;100.00;98847.59;5178599;28;20038;-78
2023/12/11 03:57:13;;;;;;;19.95;2.83;;;;;;;9.42;100.00;98846.91;5180900;28;20028;-78
2023/12/11 03:59:43;;;;;;;19.02;2.40;;;;;;;9.41;100.00;98844.38;5176489;28;20092;-78
2023/12/11 04:02:14;;;;;;;11.43;2.40;;;;;;;9.41;100.00;98839.19;5181140;28;20298;-78
2023/12/11 04:04:44;;;;;;;12.88;2.55;;;;;;;9.39;100.00;98843.66;5177597;28;20513;-77
2023/12/11 04:07:14;;;;;;;12.35;2.13;;;;;;;9.41;100.00;98844.38;5179850;28;20553;-78
2023/12/11 04:09:45;;;;;;;13.80;2.55;;;;;;;9.33;100.00;98849.22;5178853;28;20361;-76
2023/12/11 04:12:15;;;;;;;20.27;3.28;;;;;;;9.37;100.00;98845.50;5180939;28;20053;-77
2023/12/11 04:14:46;;;;;;;15.93;2.40;;;;;;;9.29;100.00;98843.34;5178661;28;20033;-77
2023/12/11 04:17:16;;;;;;;20.42;3.22;;;;;;;9.24;100.00;98845.38;5171684;28;20120;-78
2023/12/11 04:19:46;;;;;;;18.63;3.35;;;;;;;9.20;100.00;98837.81;5179492;28;20034;-78
2023/12/11 04:22:17;;;;;;;14.98;3.08;;;;;;;9.13;100.00;98837.34;5180137;28;20026;-78
2023/12/11 04:24:47;;;;;;;16.67;2.80;;;;;;;9.09;100.00;98842.81;5178495;28;20032;-78
2023/12/11 04:27:17;;;;;;;10.85;2.65;;;;;;;9.03;100.00;98843.16;5179693;28;20120;-77
2023/12/11 04:29:48;;;;;;;16.27;2.78;;;;;;;9.06;100.00;98844.75;5179362;28;20030;-78
2023/12/11 04:32:18;;;;;;;19.73;2.70;;;;;;;9.04;100.00;98844.00;5177604;28;20029;-78
2023/12/11 04:34:48;;;;;;;19.65;3.38;;;;;;;9.04;100.00;98855.25;5178449;28;20113;-76
2023/12/11 04:37:19;;;;;;;16.80;2.70;;;;;;;9.04;100.00;98844.84;5168783;28;20053;-77
2023/12/11 04:39:49;;;;;;;13.52;2.53;;;;;;;9.04;100.00;98839.63;5178648;28;20034;-78
2023/12/11 04:42:19;;;;;;;8.50;2.17;;;;;;;9.04;100.00;98841.41;5169527;28;20018;-77
2023/12/11 04:44:50;;;;;;;14.10;2.00;;;;;;;9.07;100.00;98836.03;5168292;28;20034;-78
2023/12/11 04:47:20;;;;;;;19.83;3.17;;;;;;;9.13;100.00;98837.34;5180928;28;20029;-78
2023/12/11 04:49:50;;;;;;;19.33;3.13;;;;;;;9.14;100.00;98833.81;5178295;28;20125;-78
2023/12/11 04:52:21;;;;;;;13.77;2.67;;;;;;;9.16;100.00;98842.38;5177816;28;20140;-77
2023/12/11 04:54:51;;;;;;;18.17;2.95;;;;;;;9.15;100.00;98842.47;5177521;28;20033;-78
2023/12/11 04:57:21;;;;;;;16.48;3.13;;;;;;;9.10;100.00;98841.88;5161320;28;20022;-78
2023/12/11 04:59:52;;;;;;;16.38;2.38;;;;;;;9.12;100.00;98832.22;5178602;28;20440;-78
2023/12/11 05:02:22;;;;;;;18.55;2.50;;;;;;;9.13;100.00;98831.31;5177270;28;20025;-78
2023/12/11 05:04:52;;;;;;;21.83;2.38;;;;;;;9.09;100.00;98827.16;5176902;28;20456;-77
2023/12/11 05:07:23;;;;;;;19.05;2.60;;;;;;;9.03;100.00;98831.91;5180281;28;20026;-78
2023/12/11 05:09:53;;;;;;;16.95;2.42;;;;;;;9.12;100.00;98827.03;5176316;28;20423;-78
2023/12/11 05:12:23;;;;;;;13.90;2.70;;;;;;;9.13;100.00;98822.63;5176664;28;20392;-74
2023/12/11 05:14:54;;;;;;;11.43;2.25;;;;;;;9.10;100.00;98818.41;5178283;28;20034;-78
2023/12/11 05:17:24;;;;;;;20.50;3.03;;;;;;;9.15;100.00;98814.63;5177249;28;20025;-74
2023/12/11 05:19:55;;;;;;;11.75;2.47;;;;;;;9.11;100.00;98827.94;5179451;28;20120;-78
2023/12/11 05:22:25;;;;;;;20.25;2.72;;;;;;;9.16;100.00;98828.50;5168550;28;20084;-75
2023/12/11 05:24:55;;;;;;;18.25;2.83;;;;;;;9.25;100.00;98830.56;5176247;28;20487;-78
2023/12/11 05:27:26;;;;;;;14.57;2.80;;;;;;;9.22;100.00;98828.16;5176213;28;20052;-77
2023/12/11 05:29:56;;;;;;;16.05;2.45;;;;;;;9.30;100.00;98826.78;5178466;28;20026;-78
2023/12/11 05:32:26;;;;;;;17.30;2.63;;;;;;;9.30;100.00;98826.78;5175381;28;20351;-78
2023/12/11 05:34:57;;;;;;;26.65;3.17;;;;;;;9.32;100.00;98835.34;5177888;28;20037;-77
2023/12/11 05:37:27;;;;;;;17.17;3.13;;;;;;;9.34;100.00;98830.88;5176811;28;20049;-78
2023/12/11 05:39:57;;;;;;;18.08;3.40;;;;;;;9.29;100.00;98826.88;5174631;28;20088;-78
2023/12/11 05:42:28;;;;;;;14.48;2.33;;;;;;;9.22;100.00;98836.81;5176525;28;20029;-77
2023/12/11 05:44:58;;;;;;;18.98;2.55;;;;;;;9.11;100.00;98834.91;5176896;28;20025;-78
2023/12/11 05:47:28;;;;;;;15.35;2.05;;;;;;;9.02;100.00;98831.06;5165248;28;20098;-78
2023/12/11 05:49:59;;;;;;;14.77;2.53;;;;;;;8.95;100.00;98816.72;5177473;28;20033;-78
2023/12/11 05:52:29;;;;;;;20.10;2.67;;;;;;;8.86;100.00;98817.22;5174939;28;20022;-78
2023/12/11 05:54:59;;;;;;;15.13;2.50;;;;;;;8.83;100.00;98812.19;5176105;28;20018;-78
2023/12/11 05:57:30;;;;;;;14.73;1.80;;;;;;;8.78;100.00;98809.03;5168411;28;20030;-78
2023/12/11 06:00:00;;;;;;;17.85;2.47;;;;;;;8.68;100.00;98815.66;5178012;28;20022;-78
2023/12/11 06:02:31;;;;;;;15.43;2.08;;;;;;;8.64;100.00;98819.38;5176879;28;20030;-79
2023/12/11 06:05:01;;;;;;;14.45;2.45;;;;;;;8.60;100.00;98820.47;5176922;28;20038;-78
2023/12/11 06:07:32;;;;;;;19.27;2.17;;;;;;;8.55;100.00;98808.63;5175659;28;20040;-78
2023/12/11 06:10:03;;;;;;;14.13;2.35;;;;;;;8.49;100.00;98812.41;5175893;28;20029;-78
2023/12/11 06:12:34;;;;;;;14.63;1.95;;;;;;;8.63;100.00;98806.44;5175581;28;20193;-75
2023/12/11 06:15:05;;;;;;;12.07;2.03;;;;;;;8.54;100.00;98807.78;5177031;28;20121;-78
2023/12/11 06:17:35;;;;;;;11.40;2.30;;;;;;;8.43;100.00;98812.75;5176181;28;20026;-78
2023/12/11 06:20:06;;;;;;;14.65;2.22;;;;;;;8.59;100.00;98807.53;5176982;28;20022;-77
2023/12/11 06:22:36;;;;;;;16.85;3.22;;;;;;;8.46;100.00;98804.78;5172881;28;20426;-78
2023/12/11 06:25:07;;;;;;;10.40;2.25;;;;;;;8.33;100.00;98801.16;5176424;28;20394;-78
2023/12/11 06:27:37;;;;;;;17.10;2.38;;;;;;;8.35;100.00;98801.91;5172298;28;20499;-77
2023/12/11 06:30:08;;;;;;;21.50;2.20;;;;;;;8.45;100.00;98800.50;5176766;28;20387;-74
2023/12/11 06:32:38;;;;;;;23.27;3.42;;;;;;;8.40;100.00;98801.66;5175641;28;20034;-77
2023/12/11 06:35:09;;;;;;;19.38;2.72;;;;;;;8.50;100.00;98806.28;5175477;28;20025;-78
2023/12/11 06:37:40;;;;;;;21.30;2.80;;;;;;;8.38;100.00;98806.94;5174990;28;20483;-76
2023/12/11 06:40:10;;;;;;;18.17;2.85;;;;;;;8.49;100.00;98795.94;5175918;28;20107;-76
2023/12/11 06:42:41;;;;;;;21.02;2.97;;;;;;;8.45;100.00;98797.03;5160881;28;20586;-77
2023/12/11 06:45:12;;;;;;;13.05;2.25;;;;;;;8.34;100.00;98794.19;5173361;28;20021;-78
2023/12/11 06:47:42;;;;;;;24.25;2.60;;;;;;;8.23;100.00;98801.75;5164787;28;20045;-75
2023/12/11 06:50:13;;;;;;;18.27;2.47;;;;;;;8.31;100.00;98792.59;5173170;28;20434;-77
2023/12/11 06:52:44;;;;;;;15.52;2.00;;;;;;;8.38;100.00;98793.09;5160914;28;20135;-78
2023/12/11 06:55:14;;;;;;;23.98;2.60;;;;;;;8.41;100.00;98795.53;5175551;28;20553;-77
2023/12/11 06:57:44;;;;;;;21.80;2.40;;;;;;;8.36;100.00;98793.19;5175788;28;20026;-77
2023/12/11 07:00:15;;;;;;;19.40;1.90;;;;;;;8.34;100.00;98794.19;5176737;28;20089;-78
2023/12/11 07:02:45;;;;;;;24.38;3.30;;;;;;;8.39;100.00;98787.78;5173732;28;20030;-78
2023/12/11 07:05:16;;;;;;;13.70;2.00;;;;;;;8.41;100.00;98785.13;5182274;28;20042;-78
2023/12/11 07:07:46;;;;;;;14.45;2.35;;;;;;;8.39;100.00;98787.78;5179382;28;20395;-77
2023/12/11 07:10:16;;;;;;;20.38;1.90;;;;;;;8.41;100.00;98790.31;5179812;28;20048;-77
2023/12/11 07:12:47;;;;;;;20.45;2.45;;;;;;;8.39;100.00;98787.78;5179224;28;20431;-74
2023/12/11 07:15:19;;;;;;;14.48;1.95;;;;;;;8.38;100.00;98791.31;5180029;28;20372;-78
2023/12/11 07:17:49;;;;;;;11.48;1.80;;;;;;;8.41;100.00;98793.75;5177192;28;20120;-78
2023/12/11 07:20:20;;;;;;;14.98;2.55;;;;;;;8.40;100.00;98794.69;5180533;28;20104;-78
2023/12/11 07:22:50;;;;;;;17.23;2.33;;;;;;;8.36;100.00;98803.59;5178617;28;20129;-78
2023/12/11 07:25:20;;;;;;;18.58;1.85;;;;;;;8.41;100.00;98800.75;5171152;28;20495;-78
2023/12/11 07:27:51;;;;;;;22.45;2.00;;;;;;;8.47;100.00;98793.44;5179517;28;20120;-78
2023/12/11 07:30:21;;;;;;;16.30;2.47;;;;;;;8.57;100.00;98797.19;5180592;28;20026;-77
2023/12/11 07:32:51;;;;;;;14.38;1.88;;;;;;;8.54;100.00;98806.97;5178939;28;20029;-78
2023/12/11 07:35:22;;;;;;;17.25;2.30;;;;;;;8.52;100.00;98804.41;5167550;28;20105;-78
2023/12/11 07:37:52;;;;;;;16.67;2.70;;;;;;;8.57;100.00;98809.38;5177088;28;20042;-77
2023/12/11 07:40:23;;;;;;;21.33;2.65;;;;;;;8.52;100.00;98801.81;5164291;28;20030;-77
2023/12/11 07:42:53;;;;;;;15.52;1.75;;;;;;;8.53;100.00;98806.09;5178910;28;20064;-78
2023/12/11 07:45:24;;;;;;;11.05;2.10;;;;;;;8.57;100.00;98805.00;5176606;28;20030;-75
2023/12/11 07:47:54;;;;;;;19.98;1.80;;;;;;;8.50;100.00;98806.28;5178490;28;20034;-78
2023/12/11 07:50:24;;;;;;;16.23;2.20;;;;;;;8.50;100.00;98801.06;5179292;28;20033;-76
2023/12/11 07:52:55;;;;;;;14.60;1.83;;;;;;;8.56;100.00;98805.91;5178708;28;20045;-78
2023/12/11 07:55:25;;;;;;;16.40;1.88;;;;;;;8.50;100.00;98803.66;5179091;28;20029;-77
2023/12/11 07:57:56;;;;;;;14.88;2.20;;;;;;;8.48;100.00;98802.06;5179257;28;20042;-78
2023/12/11 08:00:26;;;;;;;20.20;2.55;;;;;;;8.46;100.00;98802.16;5165369;28;20606;-78
2023/12/11 08:02:56;;;;;;;13.38;1.83;;;;;;;8.53;100.00;98802.69;5165863;28;20034;-74
2023/12/11 08:05:27;;;;;;;15.02;1.75;;;;;;;8.56;100.00;98803.31;5179706;28;20041;-77
2023/12/11 08:07:57;;;;;;;9.93;1.80;;;;;;;8.62;100.00;98804.75;5180143;28;20061;-78
2023/12/11 08:10:28;;;;;;;9.60;1.50;;;;;;;8.64;100.00;98808.97;5166059;28;20266;-76
2023/12/11 08:12:58;;;;;;;11.80;1.88;;;;;;;8.58;100.00;98803.25;5179523;28;20547;-78
2023/12/11 08:15:28;;;;;;;9.57;1.70;;;;;;;8.58;100.00;98798.88;5167831;28;20393;-76
2023/12/11 08:17:59;;;;;;;9.05;1.75;;;;;;;8.59;100.00;98803.16;5179482;28;20030;-78
2023/12/11 08:20:30;;;;;;;11.90;1.88;;;;;;;8.68;100.00;98794.84;5179800;28;20045;-77
2023/12/11 08:23:00;;;;;;;13.52;1.92;;;;;;;8.62;100.00;98799.53;5180029;28;20056;-76
2023/12/11 08:25:31;;;;;;;14.63;1.90;;;;;;;8.57;100.00;98805.00;5178846;28;20057;-78
2023/12/11 08:28:01;;;;;;;15.98;2.33;;;;;;;8.59;100.00;98800.53;5178779;28;20202;-78
2023/12/11 08:30:31;;;;;;;10.15;1.80;;;;;;;8.73;100.00;98803.22;5178792;28;20105;-78
2023/12/11 08:33:02;;;;;;;11.65;2.20;;;;;;;8.72;100.00;98816.34;5179940;28;20056;-78
2023/12/11 08:35:32;;;;;;;14.32;2.35;;;;;;;8.75;100.00;98809.16;5178785;28;20026;-78
2023/12/11 08:38:02;;;;;;;18.20;3.53;;;;;;;8.76;100.00;98808.25;5179877;28;20040;-78
2023/12/11 08:40:33;;;;;;;13.38;3.47;;;;;;;8.79;100.00;98805.50;5178988;28;20057;-78
2023/12/11 08:43:03;;;;;;;19.00;3.78;;;;;;;8.75;100.00;98810.94;5178374;28;20045;-78
2023/12/11 08:45:34;;;;;;;15.50;3.90;;;;;;;8.77;100.00;98806.50;5178374;28;20022;-78
2023/12/11 08:48:04;;;;;;;10.13;1.92;;;;;;;8.69;100.00;98811.31;5168760;28;20053;-78
2023/12/11 08:50:35;;;;;;;13.80;2.22;;;;;;;8.66;100.00;98801.91;5177810;28;20056;-78
2023/12/11 08:53:05;;;;;;;8.82;1.50;;;;;;;8.72;100.00;98800.72;5178586;28;20029;-78
2023/12/11 08:55:36;;;;;;;12.68;1.60;;;;;;;8.63;100.00;98802.06;5178773;28;20033;-78
2023/12/11 08:58:06;;;;;;;9.35;1.50;;;;;;;8.56;100.00;98810.31;5170306;28;20064;-78
2023/12/11 09:00:36;;;;;;;12.65;1.42;;;;;;;8.61;100.00;98797.88;5178726;28;20488;-78
2023/12/11 09:03:07;;;;;;;6.32;1.00;;;;;;;8.61;100.00;98803.06;5177652;28;21378;-78
2023/12/11 09:05:37;;;;;;;7.05;1.00;;;;;;;8.61;100.00;98792.66;5178057;28;20028;-78
2023/12/11 09:08:09;;;;;;;7.20;1.15;;;;;;;8.66;100.00;98801.91;5169357;28;20030;-78
2023/12/11 09:10:40;;;;;;;10.63;1.20;;;;;;;8.63;100.00;98807.28;5178545;28;20025;-78
2023/12/11 09:13:11;;;;;;;9.50;1.27;;;;;;;8.58;100.00;98801.47;5179362;28;20075;-78
2023/12/11 09:15:41;;;;;;;10.32;1.10;;;;;;;8.69;100.00;98799.13;5178667;28;20391;-78
2023/12/11 09:18:11;;;;;;;13.57;1.98;;;;;;;8.60;100.00;98798.78;5168384;28;20097;-78
2023/12/11 09:20:42;;;;;;;8.77;1.70;;;;;;;8.70;100.00;98789.56;5178526;28;20030;-78
2023/12/11 09:23:13;;;;;;;8.18;1.42;;;;;;;8.71;100.00;98789.44;5176716;28;20036;-78
2023/12/11 09:25:43;;;;;;;7.00;1.15;;;;;;;8.65;100.00;98782.00;5178648;28;20060;-78
2023/12/11 09:28:14;;;;;;;7.15;1.58;;;;;;;8.64;100.00;98793.34;5179049;28;20021;-79
2023/12/11 09:30:45;;;;;;;10.60;2.13;;;;;;;8.74;100.00;98794.47;5178145;28;20029;-78
2023/12/11 09:33:15;;;;;;;12.15;1.83;;;;;;;8.71;100.00;98792.06;5178796;28;20060;-78
2023/12/11 09:35:46;;;;;;;6.80;1.48;;;;;;;8.74;100.00;98789.28;5178088;28;20083;-78
2023/12/11 09:38:16;;;;;;;13.00;1.70;;;;;;;8.75;100.00;98790.94;5178404;28;20028;-78
2023/12/11 09:40:46;;;;;;;10.07;1.60;;;;;;;8.74;100.00;98802.28;5168026;28;20040;-75
2023/12/11 09:43:19;;;;;;;12.80;1.63;;;;;;;8.69;100.00;98791.31;5177741;28;20072;-78
2023/12/11 09:45:51;;;;;;;14.25;1.83;;;;;;;8.76;100.00;98797.81;5177325;28;20522;-78
2023/12/11 09:48:22;;;;;;;12.80;1.88;;;;;;;8.84;100.00;98794.78;5170591;28;20400;-78
2023/12/11 09:50:53;;;;;;;13.00;1.98;;;;;;;8.90;100.00;98795.28;5177919;28;20030;-75
2023/12/11 09:53:26;;;;;;;12.32;2.00;;;;;;;9.10;100.00;98792.38;5177208;28;20045;-78
2023/12/11 09:55:57;;;;;;;17.50;1.88;;;;;;;9.15;100.00;98785.16;5175993;28;20551;-78
2023/12/11 09:58:28;;;;;;;7.68;1.50;;;;;;;9.11;100.00;98788.00;5167484;28;20112;-78
2023/12/11 10:01:00;;;;;;;8.80;1.80;;;;;;;9.17;100.00;98775.47;5175071;28;20368;-78
2023/12/11 10:03:31;;;;;;;6.80;1.30;;;;;;;9.12;100.00;98780.13;5175162;28;20105;-78
2023/12/11 10:06:03;;;;;;;8.70;1.58;;;;;;;9.07;100.00;98779.53;5178203;28;20593;-78
2023/12/11 10:08:44;;;;;;;7.85;1.52;;;;;;;9.06;100.00;98783.06;5176861;28;20018;-78
2023/12/11 10:11:15;;;;;;;14.23;1.75;;;;;;;9.04;100.00;98779.72;5159757;28;20557;-78
2023/12/11 10:13:45;;;;;;;12.90;1.60;;;;;;;9.04;100.00;98769.28;5177825;28;20030;-78
2023/12/11 10:16:33;;;;;;;7.90;1.52;;;;;;;9.15;100.00;98774.72;5176525;28;20384;-78
2023/12/11 10:19:04;;;;;;;14.73;1.40;;;;;;;9.08;100.00;98767.34;5174844;28;20049;-78
2023/12/11 10:21:39;;;;;;;9.52;1.70;;;;;;;9.20;100.00;98767.47;5177495;28;20099;-78
2023/12/11 10:24:19;;;;;;;11.80;1.63;;;;;;;9.17;100.00;98763.25;5174470;28;20077;-78
2023/12/11 10:26:56;;;;;;;8.02;1.13;;;;;;;9.45;100.00;98757.28;5175944;28;20045;-78
2023/12/11 10:29:32;;;;;;;2.45;0.70;;;;;;;9.26;100.00;98754.91;5176534;28;20026;-78
2023/12/11 10:32:03;;;;;;;8.30;1.33;;;;;;;9.42;100.00;98747.00;5166323;28;20061;-77
2023/12/11 10:34:45;;;;;;;9.82;1.35;;;;;;;9.35;100.00;98756.13;5176887;28;20411;-78
2023/12/11 10:37:17;;;;;;;7.95;1.42;;;;;;;9.28;100.00;98757.44;5174003;28;20049;-78
2023/12/11 10:39:55;;;;;;;9.70;1.35;;;;;;;9.25;100.00;98755.00;5177971;28;20030;-79
2023/12/11 10:42:27;;;;;;;9.88;1.38;;;;;;;9.31;100.00;98755.47;5175280;28;20085;-76
2023/12/11 10:44:57;;;;;;;6.53;1.30;;;;;;;9.17;100.00;98752.00;5176718;28;20038;-78
2023/12/11 10:47:30;;;;;;;6.88;1.23;;;;;;;9.21;100.00;98750.91;5174159;28;20568;-78
2023/12/11 10:50:02;;;;;;;8.93;1.30;;;;;;;9.19;100.00;98742.34;5176865;28;20061;-78
2023/12/11 10:52:33;;;;;;;13.27;1.70;;;;;;;9.12;100.00;98738.44;5176639;28;20268;-78
2023/12/11 10:55:04;;;;;;;8.35;1.42;;;;;;;9.14;100.00;98740.00;5176125;28;20060;-78
2023/12/11 10:57:35;;;;;;;12.68;1.52;;;;;;;9.23;100.00;98736.00;5175510;28;20415;-78
2023/12/11 11:00:07;;;;;;;14.00;1.65;;;;;;;9.14;100.00;98731.34;5174616;28;20034;-78
2023/12/11 11:02:38;;;;;;;9.43;1.45;;;;;;;9.17;100.00;98729.38;5174289;28;20530;-78
2023/12/11 11:05:11;;;;;;;11.95;1.63;;;;;;;9.23;100.00;98723.81;5175501;28;20032;-78
2023/12/11 11:08:06;;;;;;;12.43;1.38;;;;;;;9.23;100.00;98725.56;5176079;28;20060;-77
2023/12/11 11:10:49;;;;;;;11.63;1.63;;;;;;;9.24;100.00;98719.44;5177082;28;20045;-77
2023/12/11 11:13:23;;;;;;;8.13;1.50;;;;;;;9.22;100.00;98719.53;5169789;28;20155;-78
2023/12/11 11:15:54;;;;;;;10.10;1.58;;;;;;;9.16;100.00;98719.06;5176014;28;20076;-77
2023/12/11 11:18:24;;;;;;;8.02;1.85;;;;;;;9.21;100.00;98715.25;5175793;28;20443;-75
2023/12/11 11:21:11;;;;;;;13.38;1.77;;;;;;;9.30;100.00;98709.47;5175782;28;20132;-78
2023/12/11 11:23:43;;;;;;;14.55;1.92;;;;;;;9.26;100.00;98709.75;5175831;28;20057;-77
2023/12/11 11:26:35;;;;;;;10.88;1.55;;;;;;;9.13;100.00;98703.63;5176781;28;20113;-78
2023/12/11 11:29:05;;;;;;;10.35;1.63;;;;;;;9.13;100.00;98699.22;5177383;28;20022;-77
2023/12/11 11:31:48;;;;;;;11.45;1.23;;;;;;;9.22;100.00;98705.66;5166465;28;20120;-78
2023/12/11 11:34:40;;;;;;;4.60;1.00;;;;;;;9.24;100.00;98703.78;5175583;28;20403;-78
2023/12/11 11:37:17;;;;;;;6.78;1.17;;;;;;;9.28;100.00;98697.50;5177519;28;20026;-78
2023/12/11 11:40:05;;;;;;;9.88;1.58;;;;;;;9.24;100.00;98694.22;5176117;28;20494;-78
2023/12/11 11:42:35;;;;;;;6.72;1.25;;;;;;;9.24;100.00;98698.59;5166477;28;20022;-78
2023/12/11 11:45:07;;;;;;;10.85;1.50;;;;;;;9.29;100.00;98701.78;5176765;28;20037;-76